Time;durP1;ratioP1;P1;durP2;ratioP2;P2;SDS_P1;SDS_P2;PMS_P1;PMS_P2;Temp;Humidity;BMP_temperature;BMP_pressure;BME280_temperature;BME280_humidity;BME280_pressure;Samples;Min_cycle;Max_cycle;Signal;HPM_P1;HPM_P2
2022/04/18 00:01:55;;;;;;;0.93;0.93;;;6.70;64.30;;;;;;4950282;28;20125;-70
2022/04/18 00:04:21;;;;;;;0.85;0.85;;;6.60;64.00;;;;;;4989242;28;20046;-70
2022/04/18 00:06:46;;;;;;;8.75;1.67;;;6.60;64.20;;;;;;4955202;28;20050;-70
2022/04/18 00:09:12;;;;;;;1.60;1.50;;;6.60;64.00;;;;;;4967399;28;20262;-70
2022/04/18 00:11:38;;;;;;;3.92;2.97;;;6.60;64.30;;;;;;4945034;28;20606;-70
2022/04/18 00:14:04;;;;;;;6.32;3.45;;;6.60;64.40;;;;;;4970691;28;20491;-70
2022/04/18 00:16:30;;;;;;;19.27;2.67;;;6.60;64.80;;;;;;4987447;28;20042;-70
2022/04/18 00:18:55;;;;;;;3.22;2.97;;;6.60;65.20;;;;;;4960702;28;20154;-70
2022/04/18 00:21:21;;;;;;;4.05;2.08;;;6.70;65.50;;;;;;4984938;28;20042;-70
2022/04/18 00:23:47;;;;;;;2.05;1.90;;;6.70;65.50;;;;;;4983246;28;20045;-70
2022/04/18 00:26:13;;;;;;;1.63;1.45;;;6.70;66.20;;;;;;4958601;28;20050;-70
2022/04/18 00:28:39;;;;;;;4.10;2.08;;;6.70;66.40;;;;;;4982641;28;20544;-70
2022/04/18 00:31:05;;;;;;;0.85;0.82;;;6.60;66.00;;;;;;4958005;28;20039;-70
2022/04/18 00:33:31;;;;;;;4.30;3.67;;;6.60;66.80;;;;;;4986076;28;20128;-70
2022/04/18 00:35:57;;;;;;;0.30;0.30;;;6.60;66.90;;;;;;4982747;28;20517;-70
2022/04/18 00:38:22;;;;;;;5.80;4.97;;;6.70;67.50;;;;;;4986075;28;20038;-70
2022/04/18 00:40:49;;;;;;;9.35;4.85;;;6.60;67.80;;;;;;4954441;28;20042;-70
2022/04/18 00:43:15;;;;;;;4.68;2.53;;;6.70;67.70;;;;;;4962793;28;20418;-70
2022/04/18 00:45:40;;;;;;;0.93;0.93;;;6.70;68.00;;;;;;4968106;28;20047;-70
2022/04/18 00:48:06;;;;;;;4.82;2.78;;;6.70;68.10;;;;;;4964322;28;20113;-70
2022/04/18 00:50:34;;;;;;;3.45;3.15;;;6.60;68.10;;;;;;4983649;28;20038;-70
2022/04/18 00:53:00;;;;;;;0.20;0.20;;;6.60;68.40;;;;;;4968227;28;20644;-70
2022/04/18 00:55:27;;;;;;;1.80;1.70;;;6.60;69.30;;;;;;4967134;28;20393;-70
2022/04/18 00:57:55;;;;;;;1.17;1.02;;;6.50;69.10;;;;;;4968304;28;20137;-70
2022/04/18 01:00:21;;;;;;;3.97;1.65;;;6.50;69.90;;;;;;4969379;28;20113;-70
2022/04/18 01:02:48;;;;;;;2.28;2.08;;;6.50;70.20;;;;;;4969233;28;20080;-70
2022/04/18 01:05:13;;;;;;;4.38;2.92;;;6.40;70.20;;;;;;4985972;28;20458;-70
2022/04/18 01:07:39;;;;;;;2.42;1.80;;;6.30;70.20;;;;;;4970465;28;20129;-70
2022/04/18 01:10:07;;;;;;;3.22;2.83;;;6.40;70.70;;;;;;4970549;28;20487;-70
2022/04/18 01:12:33;;;;;;;10.30;3.80;;;6.40;70.80;;;;;;4965460;28;20042;-70
2022/04/18 01:14:59;;;;;;;1.75;1.52;;;6.40;71.10;;;;;;4968196;28;20163;-70
2022/04/18 01:17:25;;;;;;;0.93;0.93;;;6.40;71.50;;;;;;4952614;28;20050;-70
2022/04/18 01:19:51;;;;;;;4.60;3.25;;;6.30;71.60;;;;;;4970219;28;20606;-70
2022/04/18 01:22:19;;;;;;;4.82;3.38;;;6.40;72.00;;;;;;4972859;28;20133;-70
2022/04/18 01:30:14;;;;;;;3.78;2.65;;;6.30;73.80;;;;;;4966202;28;20082;-70
2022/04/18 01:32:40;;;;;;;0.43;0.43;;;6.20;74.50;;;;;;4983482;28;20089;-70
2022/04/18 01:35:06;;;;;;;0.32;0.32;;;6.20;74.60;;;;;;4966250;28;20043;-70
2022/04/18 01:37:32;;;;;;;4.07;2.63;;;6.10;74.80;;;;;;4954071;28;20491;-70
2022/04/18 01:39:58;;;;;;;0.50;0.50;;;6.10;75.50;;;;;;4969124;28;20492;-70
2022/04/18 01:42:24;;;;;;;7.88;2.05;;;6.00;76.10;;;;;;4965526;28;20145;-70
2022/04/18 01:44:49;;;;;;;0.50;0.50;;;5.90;76.60;;;;;;4943424;28;20063;-70
2022/04/18 01:47:15;;;;;;;0.85;0.85;;;5.90;77.70;;;;;;4981767;28;20050;-70
2022/04/18 01:49:41;;;;;;;1.65;1.55;;;5.80;78.00;;;;;;4958415;28;20057;-70
2022/04/18 01:52:06;;;;;;;1.30;1.20;;;5.80;77.50;;;;;;4964008;28;20043;-70
2022/04/18 01:54:32;;;;;;;2.53;2.35;;;5.80;78.00;;;;;;4988878;28;20049;-70
2022/04/18 01:56:58;;;;;;;4.63;2.47;;;5.70;78.60;;;;;;4944757;28;20058;-70
2022/04/18 01:59:23;;;;;;;1.98;1.85;;;5.70;78.70;;;;;;4989065;28;20046;-70
2022/04/18 02:01:49;;;;;;;2.95;2.63;;;5.80;79.10;;;;;;4961304;28;20593;-70
2022/04/18 02:04:16;;;;;;;2.80;2.60;;;5.80;79.60;;;;;;4954651;28;20627;-70
2022/04/18 02:06:41;;;;;;;2.00;0.93;;;5.80;80.70;;;;;;4953989;28;20123;-70
2022/04/18 02:09:07;;;;;;;1.30;1.20;;;5.80;80.20;;;;;;4958318;28;20123;-70
2022/04/18 02:11:33;;;;;;;0.22;0.22;;;5.80;81.20;;;;;;4986091;28;20038;-70
2022/04/18 02:13:59;;;;;;;13.25;3.05;;;5.80;81.10;;;;;;4971705;28;20137;-70
2022/04/18 02:16:28;;;;;;;2.80;1.67;;;5.70;82.50;;;;;;4958984;28;20042;-70
2022/04/18 02:18:54;;;;;;;0.88;0.88;;;5.70;82.90;;;;;;4968433;28;20050;-70
2022/04/18 02:21:19;;;;;;;0.40;0.40;;;5.60;83.50;;;;;;4970788;28;20042;-70
2022/04/18 02:23:45;;;;;;;0.30;0.30;;;5.50;83.50;;;;;;4969233;28;20054;-70
2022/04/18 02:26:11;;;;;;;0.30;0.30;;;5.40;84.50;;;;;;4961349;28;20050;-70
2022/04/18 02:28:36;;;;;;;2.17;1.92;;;5.40;84.70;;;;;;4967008;28;20073;-70
2022/04/18 02:31:02;;;;;;;0.40;0.40;;;5.30;85.00;;;;;;4958364;28;20042;-70
2022/04/18 02:33:28;;;;;;;0.50;0.50;;;5.30;85.60;;;;;;4963332;28;20031;-70
2022/04/18 02:35:54;;;;;;;1.45;1.20;;;5.30;86.10;;;;;;4963471;28;20070;-70
2022/04/18 02:38:20;;;;;;;8.15;2.17;;;5.20;85.90;;;;;;4958986;28;20081;-70
2022/04/18 02:40:45;;;;;;;0.40;0.40;;;5.20;87.20;;;;;;4971309;28;20050;-70
2022/04/18 02:43:12;;;;;;;1.27;0.93;;;5.20;87.70;;;;;;4986359;28;20039;-70
2022/04/18 02:45:38;;;;;;;0.52;0.52;;;5.10;87.50;;;;;;4956954;28;20794;-70
2022/04/18 02:48:04;;;;;;;0.30;0.30;;;5.10;89.10;;;;;;4971060;28;20041;-70
2022/04/18 02:50:30;;;;;;;0.60;0.60;;;5.10;89.40;;;;;;4963524;28;20117;-70
2022/04/18 02:52:56;;;;;;;0.77;0.77;;;5.10;89.40;;;;;;4981308;28;20465;-70
2022/04/18 02:55:23;;;;;;;0.47;0.47;;;5.20;90.00;;;;;;4962549;28;20125;-70
2022/04/18 02:57:49;;;;;;;1.10;1.10;;;5.10;90.30;;;;;;4970577;28;20206;-69
2022/04/18 03:00:15;;;;;;;1.35;1.25;;;5.10;90.20;;;;;;4969672;28;20688;-69
2022/04/18 03:02:41;;;;;;;3.03;2.50;;;5.10;90.70;;;;;;4965997;28;20498;-70
2022/04/18 03:05:09;;;;;;;2.55;2.35;;;5.10;90.40;;;;;;4966918;28;20456;-69
2022/04/18 03:07:35;;;;;;;5.68;2.08;;;5.10;90.30;;;;;;4970043;28;20051;-69
2022/04/18 03:10:00;;;;;;;1.15;1.15;;;5.00;90.50;;;;;;4986628;28;20043;-69
2022/04/18 03:12:26;;;;;;;1.27;1.17;;;5.00;91.00;;;;;;4967087;28;20065;-69
2022/04/18 03:14:52;;;;;;;1.00;1.00;;;5.00;91.40;;;;;;4967855;28;20042;-69
2022/04/18 03:17:18;;;;;;;3.72;2.92;;;5.00;91.00;;;;;;4969585;28;20042;-69
2022/04/18 03:19:44;;;;;;;0.75;0.75;;;5.00;91.50;;;;;;4969750;28;20050;-69
2022/04/18 03:22:10;;;;;;;0.52;0.52;;;4.90;91.70;;;;;;4970485;28;20046;-69
2022/04/18 03:24:36;;;;;;;1.55;1.45;;;4.90;91.80;;;;;;4966931;28;20100;-69
2022/04/18 03:27:03;;;;;;;2.60;2.40;;;5.00;92.20;;;;;;4983004;28;20129;-70
2022/04/18 03:29:29;;;;;;;1.35;1.33;;;4.90;92.00;;;;;;4948839;28;20447;-70
2022/04/18 03:31:56;;;;;;;2.03;1.55;;;4.90;91.90;;;;;;4967904;28;20043;-69
2022/04/18 03:34:22;;;;;;;3.15;2.97;;;4.80;92.20;;;;;;4987056;28;20053;-69
2022/04/18 03:39:50;;;;;;;0.82;0.82;;;4.80;92.90;;;;;;4987119;28;20122;-70
2022/04/18 03:42:28;;;;;;;1.35;1.27;;;4.80;92.70;;;;;;4963308;28;20054;-70
2022/04/18 03:44:56;;;;;;;0.60;0.60;;;4.80;93.00;;;;;;4958796;28;20046;-69
2022/04/18 03:47:22;;;;;;;5.10;1.30;;;4.80;92.80;;;;;;4960301;28;20070;-69
2022/04/18 03:49:48;;;;;;;0.40;0.40;;;4.80;93.00;;;;;;4985341;28;20030;-69
2022/04/18 03:52:13;;;;;;;0.80;0.80;;;4.80;92.50;;;;;;4952184;28;20038;-69
2022/04/18 03:54:43;;;;;;;0.50;0.50;;;4.80;92.50;;;;;;4984293;28;20076;-69
2022/04/18 03:57:09;;;;;;;4.18;1.67;;;4.80;92.60;;;;;;4958660;28;20125;-70
2022/04/18 03:59:35;;;;;;;0.40;0.40;;;4.80;92.80;;;;;;4945472;28;20045;-69
2022/04/18 04:02:01;;;;;;;0.90;0.90;;;4.70;93.40;;;;;;4959418;28;20104;-69
2022/04/18 04:04:27;;;;;;;0.25;0.25;;;4.70;93.50;;;;;;4941011;28;20043;-69
2022/04/18 04:06:52;;;;;;;10.32;4.57;;;4.60;93.80;;;;;;4946976;28;20085;-69
2022/04/18 04:09:18;;;;;;;1.65;1.25;;;4.60;93.90;;;;;;4962207;28;20085;-69
2022/04/18 04:11:43;;;;;;;0.98;0.98;;;4.60;94.10;;;;;;4988118;28;20038;-69
2022/04/18 04:14:09;;;;;;;4.53;4.22;;;4.60;94.70;;;;;;4959636;28;20099;-69
2022/04/18 04:16:35;;;;;;;1.25;1.25;;;4.60;94.20;;;;;;4969432;28;20096;-69
2022/04/18 04:19:01;;;;;;;2.70;2.50;;;4.60;94.70;;;;;;4968954;28;20470;-69
2022/04/18 04:21:27;;;;;;;0.30;0.30;;;4.60;94.60;;;;;;4985064;28;20085;-69
2022/04/18 04:23:52;;;;;;;2.17;1.77;;;4.60;94.90;;;;;;4952424;28;20038;-70
2022/04/18 04:26:18;;;;;;;2.38;1.92;;;4.60;94.50;;;;;;4968236;28;20069;-69
2022/04/18 04:28:43;;;;;;;3.58;2.33;;;4.70;94.60;;;;;;4986374;28;20069;-70
2022/04/18 04:31:09;;;;;;;1.35;1.25;;;4.70;94.60;;;;;;4958805;28;20035;-69
2022/04/18 04:33:35;;;;;;;1.73;1.63;;;4.60;95.10;;;;;;4941888;28;20042;-69
2022/04/18 04:36:00;;;;;;;1.08;1.05;;;4.70;95.50;;;;;;4982417;28;20049;-69
2022/04/18 04:38:27;;;;;;;3.92;1.08;;;4.70;95.40;;;;;;4956405;28;20569;-69
2022/04/18 04:40:53;;;;;;;2.58;2.13;;;4.70;95.40;;;;;;4971106;28;20046;-69
2022/04/18 04:43:27;;;;;;;2.83;1.95;;;4.80;95.70;;;;;;4977859;28;20056;-70
2022/04/18 04:45:56;;;;;;;0.77;0.77;;;4.80;95.30;;;;;;4970133;28;20050;-70
2022/04/18 04:48:23;;;;;;;1.95;1.85;;;4.80;95.20;;;;;;4980841;28;20042;-69
2022/04/18 04:50:49;;;;;;;0.75;0.75;;;4.90;95.40;;;;;;4962141;28;20074;-69
2022/04/18 04:53:14;;;;;;;2.95;2.75;;;4.90;95.40;;;;;;4960972;28;20069;-69
2022/04/18 04:55:41;;;;;;;15.93;1.67;;;4.80;96.20;;;;;;4964324;28;20529;-69
2022/04/18 04:58:10;;;;;;;1.35;1.30;;;4.80;96.00;;;;;;4953458;28;20398;-69
2022/04/18 05:00:36;;;;;;;2.17;1.92;;;4.80;96.20;;;;;;4983886;28;20050;-69
2022/04/18 05:03:02;;;;;;;1.42;1.33;;;4.80;96.70;;;;;;4986283;28;20038;-69
2022/04/18 05:05:28;;;;;;;1.77;1.67;;;4.80;96.60;;;;;;4961214;28;20499;-69
2022/04/18 05:07:55;;;;;;;7.85;2.45;;;4.80;96.60;;;;;;4962587;28;20041;-70
2022/04/18 05:10:21;;;;;;;1.70;1.60;;;4.90;96.90;;;;;;4985954;28;20042;-69
2022/04/18 05:12:47;;;;;;;3.08;2.40;;;5.10;97.70;;;;;;4963677;28;20054;-70
2022/04/18 05:15:13;;;;;;;2.35;1.58;;;5.50;97.60;;;;;;4961829;28;20042;-70
2022/04/18 05:17:38;;;;;;;1.05;1.05;;;5.60;96.80;;;;;;4952118;28;20711;-70
2022/04/18 05:20:04;;;;;;;1.88;1.17;;;5.60;97.00;;;;;;4968356;28;20034;-69
2022/04/18 05:22:31;;;;;;;1.60;1.40;;;5.70;96.70;;;;;;4954527;28;20141;-69
2022/04/18 05:24:57;;;;;;;0.90;0.90;;;5.70;95.90;;;;;;4958486;28;20050;-69
2022/04/18 05:27:23;;;;;;;2.05;1.95;;;5.70;96.50;;;;;;4963792;28;20121;-69
2022/04/18 05:29:49;;;;;;;1.73;1.60;;;5.90;97.20;;;;;;4965621;28;20056;-69
2022/04/18 05:32:15;;;;;;;7.85;3.85;;;6.60;97.40;;;;;;4966472;28;20050;-69
2022/04/18 05:34:41;;;;;;;1.33;1.25;;;7.50;96.70;;;;;;4966287;28;20129;-69
2022/04/18 05:37:07;;;;;;;1.02;1.02;;;8.20;95.80;;;;;;4944680;28;20403;-69
2022/04/18 05:39:33;;;;;;;2.50;0.77;;;8.50;93.70;;;;;;4971284;28;20550;-69
2022/04/18 05:41:59;;;;;;;7.07;2.95;;;8.60;92.20;;;;;;4970485;28;20063;-69
2022/04/18 05:44:25;;;;;;;0.82;0.82;;;8.40;91.40;;;;;;4968144;28;20046;-69
2022/04/18 05:46:51;;;;;;;1.38;1.33;;;8.20;91.50;;;;;;4969072;28;20473;-69
2022/04/18 05:49:17;;;;;;;2.85;2.60;;;8.00;91.80;;;;;;4941578;28;20141;-69
2022/04/18 05:51:42;;;;;;;0.75;0.75;;;7.80;91.80;;;;;;4965589;28;20521;-69
2022/04/18 05:54:09;;;;;;;2.40;1.58;;;7.70;92.00;;;;;;4968494;28;20039;-69
2022/04/18 05:56:34;;;;;;;1.38;1.27;;;7.50;92.30;;;;;;4956561;28;20049;-69
2022/04/18 05:59:00;;;;;;;1.60;1.48;;;7.50;92.40;;;;;;4972618;28;20038;-70
2022/04/18 06:01:28;;;;;;;1.20;1.00;;;7.50;92.50;;;;;;4969346;28;20494;-69
2022/04/18 06:03:55;;;;;;;1.45;1.35;;;7.60;93.10;;;;;;4989385;28;20410;-69
2022/04/18 06:06:21;;;;;;;2.63;1.33;;;7.70;93.00;;;;;;4967561;28;20050;-70
2022/04/18 06:08:47;;;;;;;2.25;2.05;;;7.90;94.00;;;;;;4989086;28;20042;-70
2022/04/18 06:11:13;;;;;;;0.98;0.85;;;8.30;93.80;;;;;;4969511;28;20100;-70
2022/04/18 06:13:39;;;;;;;2.83;1.15;;;8.60;93.40;;;;;;4953745;28;20510;-70
2022/04/18 06:16:05;;;;;;;1.48;1.38;;;9.30;93.20;;;;;;4962544;28;20119;-70
2022/04/18 06:18:31;;;;;;;4.63;1.95;;;9.90;92.10;;;;;;4964387;28;20114;-70
2022/04/18 06:20:56;;;;;;;2.28;2.08;;;10.50;90.60;;;;;;4985359;28;20150;-70
2022/04/18 06:23:22;;;;;;;1.08;1.00;;;10.80;86.80;;;;;;4989390;28;20121;-70
2022/04/18 06:25:49;;;;;;;5.80;2.53;;;10.90;85.00;;;;;;4968981;28;20520;-70
2022/04/18 06:28:15;;;;;;;5.13;2.50;;;11.00;83.70;;;;;;4956389;28;20053;-70
2022/04/18 06:30:41;;;;;;;2.40;1.65;;;11.10;82.90;;;;;;4973414;28;20089;-70
2022/04/18 06:33:13;;;;;;;4.35;2.88;;;11.00;82.80;;;;;;4971383;28;20046;-70
2022/04/18 06:35:41;;;;;;;7.18;3.00;;;11.00;82.70;;;;;;4970494;28;20069;-70
2022/04/18 06:38:07;;;;;;;3.97;2.42;;;11.10;82.00;;;;;;4953932;28;20042;-70
2022/04/18 06:40:33;;;;;;;3.28;2.97;;;11.40;81.70;;;;;;4955447;28;20054;-70
2022/04/18 06:42:59;;;;;;;2.50;2.03;;;11.50;81.90;;;;;;4963702;28;20095;-70
2022/04/18 06:45:25;;;;;;;1.50;1.40;;;11.90;80.30;;;;;;4950016;28;20073;-70
2022/04/18 06:47:50;;;;;;;1.58;1.48;;;12.60;77.80;;;;;;4968287;28;20042;-70
2022/04/18 06:50:16;;;;;;;3.30;2.28;;;13.20;74.40;;;;;;4989170;28;20487;-70
2022/04/18 06:52:46;;;;;;;1.50;1.40;;;13.20;71.20;;;;;;4965838;28;20049;-70
2022/04/18 06:55:12;;;;;;;7.63;2.80;;;12.60;69.80;;;;;;4978129;28;20109;-70
2022/04/18 06:57:38;;;;;;;2.78;1.67;;;12.10;70.60;;;;;;4978058;28;20058;-70
2022/04/18 07:00:05;;;;;;;2.83;1.95;;;11.70;73.20;;;;;;4964870;28;20096;-70
2022/04/18 07:02:31;;;;;;;6.00;1.88;;;12.10;72.30;;;;;;4948697;28;20468;-70
2022/04/18 07:04:57;;;;;;;16.55;2.53;;;12.00;72.30;;;;;;4962738;28;20117;-70
2022/04/18 07:07:23;;;;;;;1.05;1.05;;;11.70;72.30;;;;;;4960743;28;20445;-70
2022/04/18 07:09:48;;;;;;;1.85;1.60;;;11.50;73.70;;;;;;4950143;28;20070;-70
2022/04/18 07:12:14;;;;;;;1.45;1.35;;;11.40;74.10;;;;;;4980530;28;20058;-70
2022/04/18 07:14:41;;;;;;;2.13;1.92;;;11.30;73.40;;;;;;4947278;28;20478;-70
2022/04/18 07:17:07;;;;;;;0.90;0.90;;;11.30;74.70;;;;;;4962804;28;20074;-70
2022/04/18 07:19:33;;;;;;;8.35;2.17;;;11.30;74.30;;;;;;4960456;28;20072;-70
2022/04/18 07:21:59;;;;;;;0.93;0.77;;;11.40;75.70;;;;;;4982666;28;20042;-70
2022/04/18 07:24:25;;;;;;;2.17;1.95;;;11.40;76.10;;;;;;4963828;28;20038;-70
2022/04/18 07:26:51;;;;;;;2.42;1.90;;;11.50;76.00;;;;;;4953634;28;20046;-70
2022/04/18 07:29:17;;;;;;;6.88;2.47;;;11.60;75.30;;;;;;4964923;28;20552;-70
2022/04/18 07:31:43;;;;;;;7.00;1.75;;;11.60;73.60;;;;;;4954771;28;20038;-70
2022/04/18 07:34:08;;;;;;;1.58;1.48;;;11.60;74.30;;;;;;4970539;28;20134;-70
2022/04/18 07:36:34;;;;;;;5.28;4.35;;;11.70;72.30;;;;;;4944193;28;20046;-70
2022/04/18 07:39:00;;;;;;;2.42;2.22;;;11.80;72.20;;;;;;4967828;28;20053;-70
2022/04/18 07:41:28;;;;;;;3.10;2.05;;;11.80;71.90;;;;;;4947081;28;20058;-70
2022/04/18 07:43:55;;;;;;;0.68;0.68;;;11.90;71.00;;;;;;4968781;28;20129;-70
2022/04/18 07:46:21;;;;;;;2.78;2.20;;;12.00;70.70;;;;;;4967612;28;20101;-70
2022/04/18 07:48:49;;;;;;;1.42;1.23;;;12.00;69.50;;;;;;4969614;28;20088;-70
2022/04/18 07:54:04;;;;;;;1.77;1.67;;;12.00;69.30;;;;;;4960272;28;20371;-70
2022/04/18 07:56:30;;;;;;;4.30;2.83;;;12.10;69.30;;;;;;4981796;28;20509;-70
2022/04/18 07:58:56;;;;;;;2.53;2.33;;;12.10;67.90;;;;;;4969948;28;20133;-70
2022/04/18 08:01:22;;;;;;;5.20;2.90;;;12.20;67.20;;;;;;4948432;28;20057;-70
2022/04/18 08:03:48;;;;;;;1.40;1.30;;;12.20;66.20;;;;;;4964940;28;20387;-70
2022/04/18 08:06:14;;;;;;;2.65;2.45;;;12.30;68.00;;;;;;4969573;28;20062;-70
2022/04/18 08:08:40;;;;;;;2.63;1.75;;;12.40;69.50;;;;;;4953199;28;20369;-70
2022/04/18 08:11:11;;;;;;;1.15;1.05;;;12.50;68.20;;;;;;4965785;28;20069;-70
2022/04/18 08:13:45;;;;;;;1.65;1.55;;;12.60;67.80;;;;;;4963398;28;20050;-70
2022/04/18 08:16:11;;;;;;;4.50;2.83;;;12.70;67.20;;;;;;4963546;28;20050;-70
2022/04/18 08:18:44;;;;;;;0.80;0.80;;;12.90;64.60;;;;;;4963400;28;20129;-70
2022/04/18 08:21:10;;;;;;;2.90;1.63;;;13.00;66.30;;;;;;4971182;28;20132;-70
2022/04/18 08:23:35;;;;;;;4.00;2.10;;;13.10;65.50;;;;;;4954387;28;20129;-70
2022/04/18 08:26:03;;;;;;;2.20;1.70;;;13.10;65.60;;;;;;4963709;28;20117;-70
2022/04/18 08:28:29;;;;;;;2.08;1.88;;;13.20;66.40;;;;;;4966952;28;20129;-70
2022/04/18 08:30:55;;;;;;;1.45;1.35;;;13.30;65.10;;;;;;4964494;28;20035;-71
2022/04/18 08:33:21;;;;;;;2.58;2.38;;;13.40;65.10;;;;;;4968888;28;20034;-70
2022/04/18 08:35:47;;;;;;;1.15;1.05;;;13.50;65.00;;;;;;4957699;28;20479;-70
2022/04/18 08:38:13;;;;;;;4.53;2.55;;;13.60;65.60;;;;;;4951154;28;20045;-71
2022/04/18 08:40:42;;;;;;;2.95;2.05;;;13.70;63.50;;;;;;4968277;28;20051;-70
2022/04/18 08:43:08;;;;;;;2.47;1.67;;;14.20;63.90;;;;;;4962256;28;20066;-71
2022/04/18 08:45:35;;;;;;;1.25;1.20;;;15.20;63.70;;;;;;4970800;28;20054;-71
2022/04/18 08:53:30;;;;;;;2.22;1.95;;;17.60;58.50;;;;;;4972324;28;20050;-68
2022/04/18 08:55:58;;;;;;;2.40;2.20;;;18.00;57.20;;;;;;4971787;28;20044;-69
2022/04/18 08:58:26;;;;;;;2.33;1.15;;;18.50;54.60;;;;;;4957482;28;20042;-69
2022/04/18 09:00:53;;;;;;;2.30;1.67;;;19.00;55.30;;;;;;4968871;28;20050;-69
2022/04/18 09:03:19;;;;;;;4.00;2.38;;;19.20;53.60;;;;;;4972321;28;20045;-69
2022/04/18 09:05:45;;;;;;;4.40;3.55;;;19.40;53.30;;;;;;4987588;28;20042;-69
2022/04/18 09:08:11;;;;;;;4.03;3.00;;;19.60;51.50;;;;;;4970808;28;20046;-70
2022/04/18 09:10:38;;;;;;;1.40;1.13;;;19.60;52.40;;;;;;4959376;28;20080;-69
2022/04/18 09:13:07;;;;;;;3.72;3.33;;;19.70;50.70;;;;;;4970697;28;20042;-69
2022/04/18 09:15:36;;;;;;;1.58;1.48;;;20.00;50.70;;;;;;4959461;28;20134;-69
2022/04/18 09:18:08;;;;;;;2.28;2.08;;;20.10;51.30;;;;;;4960937;28;20047;-69
2022/04/18 09:20:41;;;;;;;2.50;2.27;;;20.30;50.50;;;;;;4979817;28;20085;-69
2022/04/18 09:23:25;;;;;;;5.30;1.33;;;20.40;51.60;;;;;;4952322;28;20052;-70
2022/04/18 09:25:55;;;;;;;1.77;1.17;;;20.70;51.20;;;;;;4979658;28;20131;-69
2022/04/18 09:28:33;;;;;;;1.75;1.48;;;20.80;48.50;;;;;;4984617;28;20050;-70
2022/04/18 09:31:08;;;;;;;1.52;1.42;;;20.90;49.60;;;;;;4972019;28;20050;-69
2022/04/18 09:33:41;;;;;;;0.85;0.82;;;20.70;47.80;;;;;;4951537;28;20042;-70
2022/04/18 09:36:18;;;;;;;0.30;0.30;;;20.80;49.30;;;;;;4955132;28;20054;-69
2022/04/18 09:38:51;;;;;;;0.88;0.85;;;21.10;49.60;;;;;;4971527;28;20086;-70
2022/04/18 09:41:31;;;;;;;1.63;1.52;;;21.30;48.80;;;;;;4955295;28;20082;-69
2022/04/18 09:43:57;;;;;;;3.53;2.95;;;21.40;47.10;;;;;;4971571;28;20419;-70
2022/04/18 09:46:23;;;;;;;1.40;1.30;;;21.50;49.30;;;;;;4971997;28;20049;-69
2022/04/18 09:48:51;;;;;;;2.05;1.70;;;21.30;48.10;;;;;;4955609;28;20511;-69
2022/04/18 09:51:27;;;;;;;0.57;0.57;;;21.40;48.30;;;;;;4955794;28;20092;-70
2022/04/18 09:53:54;;;;;;;1.83;1.58;;;21.40;48.60;;;;;;4987397;28;20068;-70
2022/04/18 09:56:22;;;;;;;1.15;1.05;;;21.50;48.00;;;;;;4971159;28;20046;-69
2022/04/18 09:58:48;;;;;;;0.98;0.98;;;21.30;47.70;;;;;;4955167;28;20096;-70
2022/04/18 10:01:14;;;;;;;2.03;1.85;;;21.30;46.90;;;;;;4970844;28;20506;-70
2022/04/18 10:03:41;;;;;;;0.85;0.85;;;21.30;47.10;;;;;;4971279;28;20054;-69
2022/04/18 10:06:08;;;;;;;1.38;1.30;;;21.40;46.80;;;;;;4964563;28;20418;-70
2022/04/18 10:08:35;;;;;;;1.33;1.20;;;21.40;47.50;;;;;;4991276;28;20498;-70
2022/04/18 10:11:02;;;;;;;2.47;1.80;;;21.30;46.50;;;;;;4974805;28;20468;-70
2022/04/18 10:13:30;;;;;;;1.67;0.82;;;21.40;47.10;;;;;;4974655;28;20042;-70
2022/04/18 10:15:58;;;;;;;1.10;1.00;;;21.40;45.00;;;;;;4991073;28;20040;-70
2022/04/18 10:18:24;;;;;;;0.63;0.63;;;21.30;46.00;;;;;;4987511;28;20093;-69
2022/04/18 10:21:09;;;;;;;2.17;1.77;;;21.30;46.30;;;;;;4971765;28;20039;-70
2022/04/18 10:24:12;;;;;;;0.50;0.50;;;21.20;46.30;;;;;;4974479;28;20233;-70
2022/04/18 10:27:05;;;;;;;16.35;1.48;;;21.10;46.20;;;;;;4974441;28;20057;-69
2022/04/18 10:29:36;;;;;;;1.35;1.25;;;21.10;47.60;;;;;;4958804;28;20096;-69
2022/04/18 10:32:03;;;;;;;0.70;0.70;;;21.00;47.40;;;;;;4939468;28;20145;-70
2022/04/18 10:34:31;;;;;;;2.58;0.93;;;21.00;46.40;;;;;;4940598;28;20053;-70
2022/04/18 10:37:00;;;;;;;1.58;1.48;;;21.10;45.80;;;;;;4974838;28;20050;-70
2022/04/18 10:39:34;;;;;;;0.77;0.75;;;21.10;47.80;;;;;;4974750;28;20458;-69
2022/04/18 10:42:27;;;;;;;0.70;0.70;;;21.10;45.10;;;;;;4990262;28;20109;-69
2022/04/18 10:45:02;;;;;;;0.40;0.40;;;21.20;45.00;;;;;;4973941;28;20065;-69
2022/04/18 10:48:00;;;;;;;1.08;1.05;;;21.10;45.30;;;;;;4990471;28;20084;-69
2022/04/18 10:50:47;;;;;;;0.50;0.50;;;21.10;44.90;;;;;;4957956;28;20415;-69
2022/04/18 10:53:22;;;;;;;0.70;0.70;;;21.10;44.00;;;;;;4974196;28;20054;-69
2022/04/18 10:55:53;;;;;;;1.42;1.33;;;21.20;44.20;;;;;;4961094;28;20399;-70
2022/04/18 10:58:25;;;;;;;3.85;1.20;;;21.00;42.90;;;;;;4946497;28;20499;-69
2022/04/18 11:00:55;;;;;;;0.80;0.80;;;20.90;43.60;;;;;;4958427;28;22099;-70
2022/04/18 11:03:41;;;;;;;1.13;1.05;;;20.90;44.90;;;;;;4952739;28;20371;-69
2022/04/18 11:06:32;;;;;;;0.32;0.32;;;20.90;44.20;;;;;;4967198;28;20050;-69
2022/04/18 11:09:00;;;;;;;1.30;1.17;;;21.00;43.40;;;;;;4968755;28;20181;-69
2022/04/18 11:11:34;;;;;;;0.52;0.52;;;21.10;43.70;;;;;;4955881;28;20483;-70
2022/04/18 11:14:00;;;;;;;0.70;0.68;;;21.30;45.50;;;;;;4968324;28;20507;-69
2022/04/18 11:16:26;;;;;;;0.80;0.32;;;21.50;45.30;;;;;;4971267;28;20115;-69
2022/04/18 11:19:13;;;;;;;0.82;0.82;;;21.60;45.40;;;;;;4954700;28;20466;-69
2022/04/18 11:22:01;;;;;;;0.68;0.68;;;21.60;43.10;;;;;;4965195;28;20073;-69
2022/04/18 11:24:49;;;;;;;0.30;0.30;;;21.60;42.90;;;;;;4972859;28;20054;-70
2022/04/18 11:27:27;;;;;;;2.38;1.02;;;21.60;41.10;;;;;;4954182;28;20125;-69
2022/04/18 11:30:05;;;;;;;1.00;0.95;;;21.70;43.80;;;;;;4968965;28;20042;-69
2022/04/18 11:32:42;;;;;;;0.60;0.60;;;21.70;40.70;;;;;;4966502;28;20073;-70
2022/04/18 11:35:10;;;;;;;0.95;0.95;;;21.50;40.60;;;;;;4969972;28;20046;-69
2022/04/18 11:37:39;;;;;;;0.80;0.80;;;21.40;39.80;;;;;;4972894;28;20046;-69
2022/04/18 11:40:15;;;;;;;1.00;0.43;;;21.40;40.10;;;;;;4952190;28;20074;-69
2022/04/18 11:42:42;;;;;;;1.10;1.00;;;21.30;39.50;;;;;;4945176;28;20354;-70
2022/04/18 11:45:10;;;;;;;0.30;0.30;;;21.30;40.90;;;;;;4962437;28;20039;-69
2022/04/18 11:47:38;;;;;;;1.08;0.73;;;21.30;40.70;;;;;;4962774;28;20056;-69
2022/04/18 11:50:05;;;;;;;0.43;0.43;;;21.40;40.80;;;;;;4975199;28;20441;-69
2022/04/18 11:52:35;;;;;;;1.08;1.08;;;21.40;42.00;;;;;;4960210;28;20061;-69
2022/04/18 11:55:09;;;;;;;0.70;0.70;;;21.60;41.60;;;;;;4972000;28;20042;-70
2022/04/18 11:57:37;;;;;;;2.75;0.85;;;21.60;38.80;;;;;;4965841;28;20054;-70
2022/04/18 12:00:09;;;;;;;0.20;0.20;;;21.60;41.10;;;;;;4986626;28;20061;-69
2022/04/18 12:08:10;;;;;;;0.43;0.43;;;22.00;40.50;;;;;;4959836;28;20046;-69
2022/04/18 12:10:38;;;;;;;0.40;0.40;;;22.00;40.70;;;;;;4976546;28;20081;-69
2022/04/18 12:13:11;;;;;;;0.20;0.20;;;22.10;41.30;;;;;;4962131;28;20043;-69
2022/04/18 12:15:38;;;;;;;1.35;1.25;;;22.20;42.40;;;;;;4959977;28;20085;-69
2022/04/18 12:18:16;;;;;;;0.50;0.50;;;22.30;41.20;;;;;;4958202;28;20050;-70
2022/04/18 12:20:46;;;;;;;1.00;1.00;;;22.30;39.60;;;;;;4962132;28;20092;-70
2022/04/18 12:23:21;;;;;;;2.30;1.65;;;22.20;40.40;;;;;;4958521;28;20031;-69
2022/04/18 12:25:50;;;;;;;0.35;0.35;;;22.20;38.50;;;;;;4965426;28;20046;-70
2022/04/18 12:28:19;;;;;;;2.72;1.67;;;22.20;40.00;;;;;;4970845;28;20046;-70
2022/04/18 12:30:46;;;;;;;1.02;0.93;;;22.20;40.10;;;;;;4961660;28;20113;-70
2022/04/18 12:33:19;;;;;;;0.30;0.30;;;22.20;41.60;;;;;;4948514;28;20065;-69
2022/04/18 12:35:47;;;;;;;1.60;1.13;;;22.10;40.90;;;;;;4966352;28;20043;-69
2022/04/18 12:38:13;;;;;;;1.35;1.10;;;22.20;41.30;;;;;;4969882;28;20039;-70
2022/04/18 12:40:44;;;;;;;0.35;0.35;;;22.40;40.40;;;;;;4961141;28;20039;-70
2022/04/18 12:43:16;;;;;;;0.45;0.45;;;22.50;42.00;;;;;;4964910;28;20084;-69
2022/04/18 12:45:55;;;;;;;0.93;0.70;;;22.70;42.20;;;;;;4985366;28;20132;-69
2022/04/18 12:48:31;;;;;;;1.13;1.10;;;22.70;37.70;;;;;;4968573;28;20050;-70
2022/04/18 12:50:58;;;;;;;0.68;0.68;;;22.60;40.40;;;;;;4965341;28;20053;-70
2022/04/18 12:53:50;;;;;;;0.60;0.60;;;22.60;39.80;;;;;;4968335;28;20051;-69
2022/04/18 12:56:22;;;;;;;0.63;0.63;;;22.60;39.00;;;;;;4967418;28;20050;-70
2022/04/18 12:58:58;;;;;;;2.95;2.67;;;22.50;39.40;;;;;;4960738;28;20053;-70
2022/04/18 13:01:34;;;;;;;0.85;0.70;;;22.50;40.40;;;;;;4965348;28;20092;-70
2022/04/18 13:04:03;;;;;;;0.35;0.35;;;22.50;40.80;;;;;;4965975;28;20126;-70
2022/04/18 13:06:32;;;;;;;0.32;0.32;;;22.60;40.30;;;;;;4962692;28;20081;-70
2022/04/18 13:09:02;;;;;;;0.80;0.47;;;22.70;40.90;;;;;;4964279;28;20039;-70
2022/04/18 13:11:37;;;;;;;0.73;0.73;;;22.80;40.70;;;;;;4967374;28;20434;-70
2022/04/18 13:14:04;;;;;;;1.33;1.23;;;22.80;37.70;;;;;;4965202;28;20069;-70
2022/04/18 13:16:29;;;;;;;0.73;0.50;;;22.80;40.40;;;;;;4969299;28;20491;-70
2022/04/18 13:19:13;;;;;;;1.65;1.13;;;22.80;40.30;;;;;;4973195;28;20069;-70